LFMD

Details ICAO LFMD (CEQ)
Name Cannes Mandelieu
Region France
Timezone Europe/Paris (UTC+2.0)
Plans Departing 640
Arriving 646
Stats Elevation 14 ft / 4 m (AMSL)
Location 43.546700° 6.953250°
Runways 3
Magnetic Variation 2.339° E
Sunrise 2021-05-08 04:16:49 UTC / 2021-05-08 06:16:49 Local
Sunset 2021-05-08 18:43:07 UTC / 2021-05-08 20:43:07 Local
Advertisement - Login to hide

Runways

ID Width Length Bearing (true/mag) Surface Threshold Overrun Markings Lighting
04 59 ft / 18 m 2,394 ft / 730 m 45.11° / 42.77° ASPHALT 262 ft / 80 m 0 ft / 0 m VISUAL
17L 164 ft / 50 m 1,812 ft / 552 m 172.67° / 170.33° GRASS 0 ft / 0 m 0 ft / 0 m NONE
17R 148 ft / 45 m 5,290 ft / 1,612 m 172.67° / 170.33° ASPHALT 397 ft / 121 m 0 ft / 0 m APP EDGE THRESHOLD REIL-OMNI
22 59 ft / 18 m 2,394 ft / 730 m 225.12° / 222.78° ASPHALT 0 ft / 0 m 0 ft / 0 m VISUAL
35L 148 ft / 45 m 5,290 ft / 1,612 m 352.68° / 350.34° ASPHALT 1,155 ft / 352 m 0 ft / 0 m APP EDGE THRESHOLD REIL-OMNI
35R 164 ft / 50 m 1,812 ft / 552 m 352.67° / 350.33° GRASS 0 ft / 0 m 0 ft / 0 m NONE

Approach Navaids

Runway Type Ident Frequency Range Bearing (true/mag) Slope Elevation
35L LOC-LOC CMD 110.35 MHz 18 nm / 33 km 352.67° / 350.33° - 14 ft / 4 m (AMSL)

Map

Weather


0- 5 10 15 20 25 30 35+ Temperature / °C

Clouds and Precipitation
Forecast for 2021-03-22 12:00 UTC. Updated 2 months ago

Ground ~20,000 ft ~40,000 ft Winds

METAR

LFMD 081030Z AUTO 15007KT 100V190 CAVOK 19/13 Q1019 NOSIG

TAF

TAF LFMD 080800Z 0809/0909 16010KT CAVOK BECMG 0816/0818 VRB03KT= TAF LFMV 080800Z 0809/0909 VRB03KT CAVOK TEMPO 0814/0820 22012KT

Frequencies

Tower 118.62 MHz Cannes Tower
Recorded 130.47 MHz ATIS
Ground 121.80 MHz Cannes Ground
Tower 120.77 MHz Cannes Tower
Warning: Do not use this data for real-world aviation or navigation. No guarantee of current accuracy is given.